< < Back
Terminal Aerodrome Forecast


Current Version              Previous Versions:   1  2  3  4  5  6  7  8  9  

Terminal Aerodrome Forecast

558
FTUS44 KHUN 252322
TAFHSV
TAF
KHSV 252322Z 2600/2624 VRB04KT P6SM VCTS SCT050CB BKN090
     FM260200 VRB05KT P6SM SCT090 SCT250
      TEMPO 2609/2611 5SM BR
     FM261500 21010G16KT P6SM SCT040=



Latest METAR

573
SAUS80 KWBC 260100
MTRHSV
METAR KHSV 260053Z 12010G19KT 10SM -RA SCT055 BKN070 BKN090 BKN180 24/19
A3009 RMK AO2 WSHFT 2340 RAB26 SLP182 OCNL LTGICCG DSNT NE-SE
CB DSNT NE-SE P0002 T02440189


USA.gov is the U.S. government's official web portal to all federal, state and local government web resources and services.